»·PEaware :: SKW4027 KASE-KDEN

SKW4027 :: KASE-KDEN

FLIGHT INFORMATION

Flight Status: Arrived
Operator:
SkyWest Airlines
More flights by this operator :: More flights under this callsign
Pilot: Skye D. (10623)
Aircraft: CANADAIR CL-600 CRJ-200
(CRJ2)
More flights by this aircraft type
Origin: KASE Aspen-Pitkin Co/Sardy
United States
Destination: KDEN Denver Intl
United States
More flights between these airports :: More routes between these airports
Route: +LINDZ8 DBL JNETT CREDE3
File this flight plan on PilotEdge
Remarks:
Altitude:
(Current/Filed)
20,000ft
Speed:
(Current/Filed)
451kts
Departed: 31-Jan-18 01:03 PM
Arrived: 31-Jan-18 01:42 PM
Distance/Time
Traveled:
109nm/0:38
Distance/Time
To Go:
Arrived

Flight Plot

Page will automatically refresh every two minutes.


Map Options




Map Legend


Flown Route
Filed Route
Departure Airport
Arrival Airport
Navaid (VOR, NDB)
Fix

Horizontal Profiles

Position Reports

Time Latitude Longitude Heading Altitude Ground
Speed
31-Jan-18 12:51 39.218654 -106.863871 248 7824ft 0kts
31-Jan-18 12:52 39.218654 -106.863871 248 7824ft 0kts
31-Jan-18 12:53 39.218654 -106.863871 248 7824ft 0kts
31-Jan-18 12:54 39.218654 -106.863871 248 7824ft 0kts
31-Jan-18 12:55 39.218654 -106.863871 248 7824ft 0kts
31-Jan-18 12:56 39.218654 -106.863871 248 7824ft 0kts
31-Jan-18 12:57 39.218654 -106.863871 248 7824ft 0kts
31-Jan-18 12:58 39.218654 -106.863871 248 7824ft 0kts
31-Jan-18 12:59 39.218654 -106.863871 248 7824ft 0kts
31-Jan-18 13:00 39.218654 -106.863871 248 7824ft 0kts
31-Jan-18 13:01 39.218654 -106.863871 248 7824ft 0kts
31-Jan-18 13:02 39.218654 -106.863871 248 7824ft 0kts
31-Jan-18 13:03 39.218654 -106.863871 248 7824ft 0kts
31-Jan-18 13:04 39.218631 -106.863943 248 7824ft 4kts
31-Jan-18 13:05 39.218480 -106.864441 248 7824ft 0kts
31-Jan-18 13:06 39.217159 -106.864579 159 7824ft 16kts
31-Jan-18 13:07 39.212690 -106.862449 171 7824ft 10kts
31-Jan-18 13:08 39.212241 -106.863330 286 7824ft 6kts
31-Jan-18 13:09 39.226106 -106.870050 340 7825ft 146kts
31-Jan-18 13:10 39.257786 -106.878560 332 9224ft 154kts
31-Jan-18 13:11 39.273324 -106.917794 284 10123ft 190kts
31-Jan-18 13:12 39.289391 -106.976335 284 11464ft 234kts
31-Jan-18 13:13 39.308108 -107.039078 305 13301ft 253kts
31-Jan-18 13:14 39.344670 -107.093957 305 15235ft 257kts
31-Jan-18 13:15 39.388245 -107.136519 345 16975ft 287kts
31-Jan-18 13:16 39.443263 -107.091101 57 18208ft 365kts
31-Jan-18 13:17 39.443215 -107.000532 97 19451ft 381kts
31-Jan-18 13:18 39.439260 -106.901927 96 20374ft 390kts
31-Jan-18 13:19 39.416401 -106.785005 104 21463ft 400kts
31-Jan-18 13:20 39.391929 -106.668081 104 22397ft 410kts
31-Jan-18 13:21 39.369241 -106.560399 104 23031ft 426kts
31-Jan-18 13:22 39.336404 -106.426820 111 23027ft 444kts
31-Jan-18 13:23 39.296648 -106.292081 111 23014ft 440kts
31-Jan-18 13:24 39.255964 -106.152513 104 23010ft 441kts
31-Jan-18 13:25 39.266027 -106.004317 74 23050ft 431kts
31-Jan-18 13:26 39.280585 -105.900851 74 23075ft 431kts
31-Jan-18 13:27 39.299570 -105.765869 74 23078ft 432kts
31-Jan-18 13:28 39.321064 -105.649625 52 22481ft 396kts
31-Jan-18 13:29 39.382329 -105.510624 52 21105ft 386kts
31-Jan-18 13:30 39.439808 -105.396596 47 19797ft 370kts
31-Jan-18 13:31 39.484196 -105.312649 47 17920ft 365kts
31-Jan-18 13:32 39.533383 -105.219289 48 16015ft 353kts
31-Jan-18 13:33 39.577681 -105.134554 48 14760ft 347kts
31-Jan-18 13:34 39.619599 -105.054178 48 14260ft 342kts
31-Jan-18 13:35 39.665145 -104.966564 48 13999ft 333kts
31-Jan-18 13:36 39.698940 -104.900970 48 13717ft 336kts
31-Jan-18 13:37 39.744722 -104.850499 2 13134ft 251kts
31-Jan-18 13:38 39.800018 -104.842115 351 11691ft 240kts
31-Jan-18 13:39 39.856293 -104.839989 350 11025ft 219kts
31-Jan-18 13:40 39.913837 -104.839127 350 10479ft 219kts
31-Jan-18 13:41 39.970630 -104.839017 359 8746ft 223kts
31-Jan-18 13:42 40.006574 -104.780689 71 7916ft 219kts
31-Jan-18 13:43 40.013925 -104.701977 83 7918ft 219kts
31-Jan-18 13:44 39.992548 -104.637469 169 7846ft 208kts
31-Jan-18 13:45 39.945518 -104.649288 207 7367ft 199kts
31-Jan-18 13:46 39.898281 -104.659387 179 6272ft 192kts
31-Jan-18 13:47 39.859226 -104.660167 180 5446ft 152kts
31-Jan-18 13:48 39.841743 -104.660882 197 5436ft 20kts
31-Jan-18 13:49 39.842345 -104.662516 0 5436ft 21kts
31-Jan-18 13:50 39.849540 -104.662412 0 5436ft 31kts
31-Jan-18 13:51 39.852443 -104.663644 339 5436ft 7kts
31-Jan-18 13:52 39.854058 -104.665852 358 5436ft 15kts
31-Jan-18 13:53 39.857317 -104.666562 0 5436ft 10kts
31-Jan-18 13:54 39.857506 -104.666562 0 5436ft 0kts
31-Jan-18 13:55 39.857506 -104.666562 0 5436ft 0kts

Navigation Log

Ident Type
1. KASE Airport
2. LINDZ Fix
3. DBL Navaid
4. JNETT Fix
5. KDEN Airport